Time;durP1;ratioP1;P1;durP2;ratioP2;P2;SDS_P1;SDS_P2;PMS_P1;PMS_P2;Temp;Humidity;BMP_temperature;BMP_pressure;BME280_temperature;BME280_humidity;BME280_pressure;Samples;Min_cycle;Max_cycle;Signal;HPM_P1;HPM_P2
2023/12/09 00:00:43;;;;;;;29.23;10.87;;;8.60;99.90;;;;;;5092896;28;20168;-71
2023/12/09 00:03:08;;;;;;;33.60;11.40;;;8.70;99.90;;;;;;5092905;28;20175;-71
2023/12/09 00:05:34;;;;;;;34.20;11.47;;;8.60;99.90;;;;;;5093088;28;20235;-71
2023/12/09 00:08:00;;;;;;;28.67;11.63;;;8.60;99.90;;;;;;5092619;28;20168;-71
2023/12/09 00:10:25;;;;;;;31.17;11.67;;;8.60;99.90;;;;;;5092882;28;20168;-72
2023/12/09 00:12:51;;;;;;;34.83;11.03;;;8.60;99.90;;;;;;5092939;28;20225;-70
2023/12/09 00:15:16;;;;;;;28.43;11.20;;;8.60;99.90;;;;;;5092763;28;20172;-71
2023/12/09 00:17:43;;;;;;;34.60;11.40;;;8.60;99.90;;;;;;5093141;28;20171;-71
2023/12/09 00:20:09;;;;;;;26.17;10.50;;;8.60;99.90;;;;;;5093097;28;20208;-71
2023/12/09 00:22:34;;;;;;;37.63;11.20;;;8.60;99.90;;;;;;5092466;28;20179;-71
2023/12/09 00:25:00;;;;;;;29.93;11.13;;;8.50;99.90;;;;;;5092911;28;20168;-71
2023/12/09 00:27:26;;;;;;;30.47;10.87;;;8.50;99.90;;;;;;5092266;28;20234;-71
2023/12/09 00:29:51;;;;;;;35.07;11.97;;;8.50;99.90;;;;;;5096660;28;20191;-71
2023/12/09 00:32:17;;;;;;;22.63;10.37;;;8.60;99.90;;;;;;5096695;28;20179;-71
2023/12/09 00:34:43;;;;;;;29.40;10.67;;;8.50;99.90;;;;;;5096510;28;20713;-71
2023/12/09 00:37:08;;;;;;;28.00;10.67;;;8.50;99.90;;;;;;5096328;28;20221;-71
2023/12/09 00:39:34;;;;;;;27.43;10.60;;;8.50;99.90;;;;;;5096367;28;20172;-71
2023/12/09 00:41:59;;;;;;;43.40;11.27;;;8.50;99.90;;;;;;5096364;28;20320;-70
2023/12/09 00:44:25;;;;;;;35.00;11.50;;;8.50;99.90;;;;;;5096404;28;20187;-71
2023/12/09 00:46:51;;;;;;;41.00;16.73;;;8.50;99.90;;;;;;5096314;28;20206;-71
2023/12/09 00:49:16;;;;;;;30.07;10.60;;;8.50;99.90;;;;;;5096274;28;20168;-71
2023/12/09 00:51:42;;;;;;;27.97;10.43;;;8.50;99.90;;;;;;5095814;28;20179;-71
2023/12/09 00:54:07;;;;;;;26.30;10.70;;;8.50;99.90;;;;;;5096044;28;20266;-71
2023/12/09 00:56:33;;;;;;;30.00;9.93;;;8.50;99.90;;;;;;5096077;28;20258;-71
2023/12/09 00:58:59;;;;;;;30.83;11.90;;;8.40;99.90;;;;;;5096113;28;20176;-71
2023/12/09 01:01:24;;;;;;;33.30;10.73;;;8.40;99.90;;;;;;5096163;28;20209;-70
2023/12/09 01:03:50;;;;;;;37.53;10.73;;;8.40;99.90;;;;;;5096033;28;20179;-71
2023/12/09 01:06:16;;;;;;;28.50;10.47;;;8.40;99.90;;;;;;5094404;28;20223;-70
2023/12/09 01:08:42;;;;;;;29.83;11.47;;;8.40;99.90;;;;;;5096019;28;20696;-70
2023/12/09 01:11:08;;;;;;;30.57;12.27;;;8.40;99.90;;;;;;5094375;28;20171;-71
2023/12/09 01:13:33;;;;;;;33.23;11.67;;;8.40;99.90;;;;;;5096128;28;20191;-71
2023/12/09 01:15:59;;;;;;;30.17;11.47;;;8.40;99.90;;;;;;5095962;28;20172;-70
2023/12/09 01:18:24;;;;;;;32.27;11.40;;;8.40;99.90;;;;;;5095842;28;20199;-70
2023/12/09 01:20:50;;;;;;;30.10;11.33;;;8.40;99.90;;;;;;5095386;28;20573;-71
2023/12/09 01:23:16;;;;;;;38.13;12.07;;;8.30;99.90;;;;;;5095650;28;20187;-70
2023/12/09 01:25:41;;;;;;;28.70;11.30;;;8.40;99.90;;;;;;5095443;28;20553;-70
2023/12/09 01:28:07;;;;;;;34.03;11.27;;;8.30;99.90;;;;;;5095461;28;20307;-70
2023/12/09 01:30:33;;;;;;;30.63;11.57;;;8.20;99.90;;;;;;5095470;28;20160;-71
2023/12/09 01:32:59;;;;;;;26.00;12.30;;;8.20;99.90;;;;;;5095509;28;20200;-71
2023/12/09 01:35:24;;;;;;;65.63;36.27;;;8.10;99.90;;;;;;5094992;28;20187;-71
2023/12/09 01:37:50;;;;;;;43.67;22.70;;;8.10;99.90;;;;;;5095439;28;20172;-71
2023/12/09 01:40:16;;;;;;;43.27;15.07;;;8.10;99.90;;;;;;5094690;28;20174;-71
2023/12/09 01:42:42;;;;;;;25.00;11.33;;;8.10;99.90;;;;;;5095506;28;20245;-71
2023/12/09 01:45:08;;;;;;;31.57;12.43;;;8.20;99.90;;;;;;5095254;28;20172;-71
2023/12/09 01:47:35;;;;;;;38.13;14.73;;;8.20;99.90;;;;;;5095231;28;20176;-71
2023/12/09 01:50:03;;;;;;;32.70;11.57;;;8.10;99.90;;;;;;5094734;28;20179;-72
2023/12/09 01:52:30;;;;;;;34.13;12.23;;;8.10;99.90;;;;;;5093748;28;20171;-71
2023/12/09 01:54:57;;;;;;;39.67;11.90;;;8.20;99.90;;;;;;5095091;28;20169;-72
2023/12/09 01:57:22;;;;;;;37.13;14.53;;;8.20;99.90;;;;;;5095016;28;20206;-72
2023/12/09 01:59:48;;;;;;;31.00;11.97;;;8.20;99.90;;;;;;5094861;28;20195;-72
2023/12/09 02:02:14;;;;;;;28.27;12.73;;;8.10;99.90;;;;;;5094984;28;20168;-72
2023/12/09 02:04:40;;;;;;;25.70;11.20;;;8.10;99.90;;;;;;5094487;28;20176;-71
2023/12/09 02:07:06;;;;;;;30.37;11.00;;;8.00;99.90;;;;;;5094612;28;20302;-72
2023/12/09 02:09:32;;;;;;;35.43;11.90;;;8.00;99.90;;;;;;5094361;28;20272;-72
2023/12/09 02:12:06;;;;;;;31.17;11.30;;;8.00;99.90;;;;;;5095126;28;20180;-70
2023/12/09 02:14:50;;;;;;;29.57;11.67;;;8.10;99.90;;;;;;5094715;28;20182;-70
2023/12/09 02:17:19;;;;;;;30.63;11.10;;;8.10;99.90;;;;;;5094580;28;20262;-70
2023/12/09 02:19:45;;;;;;;36.10;11.13;;;8.10;99.90;;;;;;5094098;28;20175;-70
2023/12/09 02:22:11;;;;;;;27.97;10.97;;;8.10;99.90;;;;;;5094650;28;20310;-70
2023/12/09 02:24:36;;;;;;;24.43;10.60;;;8.10;99.90;;;;;;5094547;28;20278;-70
2023/12/09 02:27:13;;;;;;;30.97;10.43;;;8.00;99.90;;;;;;5093861;28;20235;-72
2023/12/09 02:29:49;;;;;;;32.97;10.87;;;8.00;99.90;;;;;;5094413;28;20198;-70
2023/12/09 02:32:19;;;;;;;26.40;9.90;;;8.00;99.90;;;;;;5094175;28;20266;-70
2023/12/09 02:34:46;;;;;;;30.40;10.20;;;8.00;99.90;;;;;;5092585;28;20176;-70
2023/12/09 02:37:13;;;;;;;32.63;9.93;;;8.00;99.90;;;;;;5094211;28;20178;-71
2023/12/09 02:39:40;;;;;;;27.77;9.00;;;8.00;99.90;;;;;;5094146;28;20552;-71
2023/12/09 02:42:06;;;;;;;30.43;10.03;;;8.00;99.90;;;;;;5094159;28;20650;-71
2023/12/09 02:44:34;;;;;;;23.80;8.97;;;8.00;99.90;;;;;;5094354;28;20608;-71
2023/12/09 02:46:59;;;;;;;21.50;8.70;;;8.00;99.90;;;;;;5093808;28;20200;-71
2023/12/09 02:49:25;;;;;;;31.37;8.63;;;8.00;99.90;;;;;;5093859;28;20233;-70
2023/12/09 02:51:51;;;;;;;28.40;9.50;;;8.00;99.90;;;;;;5093308;28;20179;-71
2023/12/09 02:54:16;;;;;;;25.50;9.17;;;8.00;99.90;;;;;;5094046;28;20262;-71
2023/12/09 02:56:42;;;;;;;23.97;9.33;;;8.00;99.90;;;;;;5093861;28;20526;-71
2023/12/09 02:59:08;;;;;;;26.90;8.93;;;7.90;99.90;;;;;;5093889;28;20172;-71
2023/12/09 03:01:33;;;;;;;33.97;8.87;;;7.90;99.90;;;;;;5093754;28;20176;-71
2023/12/09 03:03:59;;;;;;;30.03;9.23;;;7.90;99.90;;;;;;5093544;28;20214;-71
2023/12/09 03:06:25;;;;;;;20.17;8.70;;;7.90;99.90;;;;;;5093802;28;20204;-71
2023/12/09 03:08:50;;;;;;;27.63;9.23;;;7.80;99.90;;;;;;5093807;28;20172;-71
2023/12/09 03:11:16;;;;;;;25.87;8.93;;;7.90;99.90;;;;;;5093760;28;20279;-71
2023/12/09 03:13:41;;;;;;;24.13;9.13;;;7.90;99.90;;;;;;5093703;28;20168;-71
2023/12/09 03:16:07;;;;;;;29.57;9.40;;;7.80;99.90;;;;;;5093490;28;20320;-71
2023/12/09 03:18:33;;;;;;;25.67;9.33;;;7.80;99.90;;;;;;5093225;28;20195;-71
2023/12/09 03:20:58;;;;;;;23.10;9.00;;;7.80;99.90;;;;;;5093568;28;20683;-71
2023/12/09 03:23:24;;;;;;;30.10;9.50;;;7.80;99.90;;;;;;5093432;28;20211;-71
2023/12/09 03:25:49;;;;;;;31.70;9.93;;;7.90;99.90;;;;;;5092143;28;20206;-71
2023/12/09 03:28:15;;;;;;;28.27;10.03;;;8.00;99.90;;;;;;5093398;28;20676;-71
2023/12/09 03:30:41;;;;;;;29.97;10.70;;;7.90;99.90;;;;;;5093445;28;20182;-71
2023/12/09 03:33:06;;;;;;;26.67;10.33;;;7.90;99.90;;;;;;5093055;28;20171;-71
2023/12/09 03:35:32;;;;;;;32.07;10.80;;;7.90;99.90;;;;;;5093525;28;20229;-71
2023/12/09 03:37:58;;;;;;;28.10;9.73;;;7.90;99.90;;;;;;5093357;28;20171;-70
2023/12/09 03:40:23;;;;;;;28.80;10.67;;;7.80;99.90;;;;;;5093237;28;20262;-71
2023/12/09 03:42:49;;;;;;;29.57;11.63;;;7.90;99.90;;;;;;5093264;28;20180;-71
2023/12/09 03:45:14;;;;;;;30.63;10.40;;;7.90;99.90;;;;;;5093128;28;20199;-71
2023/12/09 03:47:40;;;;;;;32.30;11.77;;;7.90;99.90;;;;;;5093041;28;20179;-71
2023/12/09 03:50:06;;;;;;;29.80;11.20;;;7.90;99.90;;;;;;5093201;28;20180;-70
2023/12/09 03:52:32;;;;;;;30.57;11.20;;;7.90;99.90;;;;;;5093122;28;20183;-71
2023/12/09 03:54:58;;;;;;;30.77;10.57;;;7.90;99.90;;;;;;5093149;28;20183;-70
2023/12/09 03:57:25;;;;;;;25.43;11.20;;;7.90;99.90;;;;;;5093209;28;20262;-71
2023/12/09 03:59:50;;;;;;;22.87;10.63;;;7.90;99.90;;;;;;5092591;28;20247;-71
2023/12/09 04:02:18;;;;;;;27.43;10.73;;;7.90;99.90;;;;;;5093081;28;20263;-71
2023/12/09 04:04:43;;;;;;;26.90;10.47;;;7.90;99.90;;;;;;5096839;28;20179;-71
2023/12/09 04:07:09;;;;;;;32.50;11.43;;;7.90;99.90;;;;;;5097239;28;20216;-71
2023/12/09 04:09:35;;;;;;;26.27;11.20;;;8.00;99.90;;;;;;5095744;28;20171;-71
2023/12/09 04:12:00;;;;;;;30.80;11.83;;;8.00;99.90;;;;;;5095838;28;20233;-71
2023/12/09 04:14:26;;;;;;;25.00;11.83;;;8.00;99.90;;;;;;5096460;28;20172;-71
2023/12/09 04:16:51;;;;;;;30.37;11.13;;;8.00;99.90;;;;;;5097007;28;20651;-72
2023/12/09 04:19:17;;;;;;;25.93;11.00;;;8.00;99.90;;;;;;5096535;28;20168;-71
2023/12/09 04:21:43;;;;;;;32.60;10.97;;;8.10;99.90;;;;;;5095174;28;20207;-71
2023/12/09 04:24:08;;;;;;;39.87;11.63;;;8.10;99.90;;;;;;5096704;28;20240;-71
2023/12/09 04:26:34;;;;;;;34.03;11.43;;;8.10;99.90;;;;;;5096546;28;20204;-71
2023/12/09 04:29:00;;;;;;;29.73;11.33;;;8.10;99.90;;;;;;5096472;28;20164;-71
2023/12/09 04:31:25;;;;;;;31.33;11.00;;;8.10;99.90;;;;;;5096533;28;20533;-71
2023/12/09 04:33:51;;;;;;;30.57;10.70;;;8.20;99.90;;;;;;5096406;28;20160;-71
2023/12/09 04:36:16;;;;;;;29.13;9.90;;;8.10;99.90;;;;;;5096456;28;20253;-71
2023/12/09 04:38:43;;;;;;;32.87;10.63;;;8.10;99.90;;;;;;5094964;28;20164;-71
2023/12/09 04:41:08;;;;;;;28.23;9.53;;;8.20;99.90;;;;;;5096541;28;20172;-71
2023/12/09 04:43:34;;;;;;;31.83;10.03;;;8.20;99.90;;;;;;5094379;28;20171;-71
2023/12/09 04:46:00;;;;;;;24.87;9.37;;;8.30;99.90;;;;;;5096315;28;20671;-71
2023/12/09 04:48:25;;;;;;;24.23;9.33;;;8.30;99.90;;;;;;5096036;28;20168;-71
2023/12/09 04:50:51;;;;;;;29.90;9.47;;;8.40;99.90;;;;;;5096121;28;20251;-70
2023/12/09 04:53:16;;;;;;;22.37;8.90;;;8.40;99.90;;;;;;5095895;28;20180;-70
2023/12/09 04:55:42;;;;;;;24.07;8.50;;;8.40;99.90;;;;;;5095868;28;20186;-70
2023/12/09 04:58:08;;;;;;;25.30;8.83;;;8.40;99.90;;;;;;5095498;28;20164;-70
2023/12/09 05:00:33;;;;;;;29.73;8.97;;;8.50;99.90;;;;;;5096043;28;20172;-70
2023/12/09 05:02:59;;;;;;;21.77;8.00;;;8.50;99.90;;;;;;5096036;28;20195;-70
2023/12/09 05:05:25;;;;;;;28.17;8.30;;;8.50;99.90;;;;;;5095831;28;20232;-70
2023/12/09 05:07:51;;;;;;;29.67;9.10;;;8.50;99.90;;;;;;5095647;28;20262;-70
2023/12/09 05:10:17;;;;;;;21.27;7.50;;;8.60;99.90;;;;;;5095301;28;20172;-71
2023/12/09 05:12:42;;;;;;;28.03;7.67;;;8.60;99.90;;;;;;5094515;28;20624;-70
2023/12/09 05:15:08;;;;;;;22.23;7.80;;;8.60;99.90;;;;;;5094957;28;20172;-70
2023/12/09 05:17:34;;;;;;;24.30;7.63;;;8.60;99.90;;;;;;5095633;28;20172;-70
2023/12/09 05:19:59;;;;;;;19.23;7.57;;;8.60;99.90;;;;;;5095215;28;20179;-70
2023/12/09 05:22:25;;;;;;;26.27;7.70;;;8.60;99.90;;;;;;5095366;28;20538;-70
2023/12/09 05:24:51;;;;;;;24.07;6.83;;;8.70;99.90;;;;;;5094304;28;20182;-70
2023/12/09 05:27:17;;;;;;;20.40;7.30;;;8.70;99.90;;;;;;5094529;28;20219;-71
2023/12/09 05:29:43;;;;;;;20.93;7.23;;;8.70;99.90;;;;;;5095683;28;20176;-70
2023/12/09 05:32:09;;;;;;;25.03;7.80;;;8.80;99.90;;;;;;5095603;28;20211;-71
2023/12/09 05:34:34;;;;;;;21.03;7.10;;;8.80;99.90;;;;;;5095312;28;20167;-71
2023/12/09 05:37:00;;;;;;;18.83;6.80;;;8.80;99.90;;;;;;5094088;28;20657;-71
2023/12/09 05:39:26;;;;;;;20.20;6.40;;;8.80;99.90;;;;;;5095033;28;20253;-70
2023/12/09 05:41:51;;;;;;;21.13;6.33;;;8.90;99.90;;;;;;5094128;28;20619;-72
2023/12/09 05:44:17;;;;;;;21.73;5.87;;;8.90;99.90;;;;;;5094747;28;20255;-71
2023/12/09 05:46:43;;;;;;;17.67;6.07;;;8.90;99.90;;;;;;5094928;28;20216;-70
2023/12/09 05:49:09;;;;;;;17.10;5.80;;;8.90;99.90;;;;;;5094336;28;20221;-70
2023/12/09 05:51:35;;;;;;;21.50;5.63;;;8.90;99.90;;;;;;5095005;28;20168;-70
2023/12/09 05:54:01;;;;;;;22.10;5.37;;;8.90;99.90;;;;;;5094878;28;20253;-70
2023/12/09 05:56:26;;;;;;;16.10;6.07;;;8.90;99.90;;;;;;5094491;28;20252;-70
2023/12/09 05:58:52;;;;;;;15.80;5.37;;;8.90;99.90;;;;;;5094107;28;20211;-71
2023/12/09 06:01:18;;;;;;;16.70;5.03;;;9.00;99.90;;;;;;5094998;28;20267;-70
2023/12/09 06:03:43;;;;;;;22.47;6.17;;;8.90;99.90;;;;;;5094791;28;20263;-70
2023/12/09 06:06:09;;;;;;;17.40;5.40;;;8.90;99.90;;;;;;5094239;28;20298;-71
2023/12/09 06:08:35;;;;;;;14.87;5.20;;;8.90;99.90;;;;;;5094314;28;20628;-70
2023/12/09 06:11:01;;;;;;;17.00;4.73;;;8.90;99.90;;;;;;5093577;28;20174;-70
2023/12/09 06:13:27;;;;;;;18.93;5.13;;;8.90;99.90;;;;;;5094425;28;20171;-70
2023/12/09 06:15:52;;;;;;;12.00;5.07;;;8.90;99.90;;;;;;5093671;28;20215;-71
2023/12/09 06:18:18;;;;;;;19.40;4.67;;;8.90;99.90;;;;;;5094618;28;20175;-70
2023/12/09 06:20:43;;;;;;;15.90;4.93;;;8.80;99.90;;;;;;5094483;28;20176;-71
2023/12/09 06:23:09;;;;;;;15.87;4.60;;;8.80;99.90;;;;;;5093753;28;20248;-70
2023/12/09 06:25:35;;;;;;;12.93;4.40;;;8.90;99.90;;;;;;5093671;28;20203;-70
2023/12/09 06:28:00;;;;;;;11.70;3.83;;;8.90;99.90;;;;;;5094022;28;20251;-70
2023/12/09 06:30:26;;;;;;;21.60;3.80;;;8.90;99.90;;;;;;5093977;28;20569;-70
2023/12/09 06:32:51;;;;;;;11.67;4.40;;;8.90;99.90;;;;;;5094169;28;20168;-71
2023/12/09 06:35:17;;;;;;;15.93;4.13;;;8.90;99.90;;;;;;5094208;28;20228;-70
2023/12/09 06:37:42;;;;;;;12.33;4.03;;;8.80;99.90;;;;;;5093552;28;20179;-71
2023/12/09 06:40:09;;;;;;;16.27;4.73;;;8.80;99.90;;;;;;5093532;28;20176;-70
2023/12/09 06:42:37;;;;;;;10.47;3.90;;;8.80;99.90;;;;;;5093749;28;20179;-70
2023/12/09 06:45:02;;;;;;;19.67;5.30;;;8.80;99.90;;;;;;5093765;28;20308;-70
2023/12/09 06:47:28;;;;;;;15.13;4.87;;;8.80;99.90;;;;;;5093974;28;20251;-70
2023/12/09 06:49:54;;;;;;;18.40;4.50;;;8.80;99.90;;;;;;5093257;28;20309;-71
2023/12/09 06:52:19;;;;;;;20.03;5.10;;;8.80;99.90;;;;;;5093754;28;20608;-70
2023/12/09 06:54:45;;;;;;;13.13;4.70;;;8.80;99.90;;;;;;5090928;28;20175;-70
2023/12/09 06:57:10;;;;;;;18.97;4.50;;;8.80;99.90;;;;;;5093348;28;20176;-70
2023/12/09 06:59:36;;;;;;;14.67;4.40;;;8.80;99.90;;;;;;5093673;28;20615;-70
2023/12/09 07:02:02;;;;;;;14.97;3.87;;;8.80;99.90;;;;;;5093514;28;20215;-70
2023/12/09 07:04:27;;;;;;;19.13;5.00;;;8.80;99.90;;;;;;5093638;28;20628;-71
2023/12/09 07:06:53;;;;;;;22.33;5.07;;;8.90;99.90;;;;;;5093248;28;20731;-72
2023/12/09 07:09:18;;;;;;;21.07;4.60;;;8.90;99.90;;;;;;5092995;28;20179;-72
2023/12/09 07:11:44;;;;;;;16.73;4.63;;;8.90;99.90;;;;;;5092028;28;20215;-71
2023/12/09 07:14:10;;;;;;;18.67;4.50;;;8.90;99.90;;;;;;5093477;28;20184;-71
2023/12/09 07:16:38;;;;;;;24.87;4.90;;;8.90;99.90;;;;;;5092030;28;20259;-71
2023/12/09 07:19:06;;;;;;;15.07;4.97;;;8.90;99.90;;;;;;5093212;28;20179;-71
2023/12/09 07:21:31;;;;;;;19.70;5.00;;;9.00;99.90;;;;;;5093052;28;20184;-71
2023/12/09 07:23:57;;;;;;;15.70;4.40;;;8.90;99.90;;;;;;5092512;28;20196;-71
2023/12/09 07:26:22;;;;;;;13.70;4.13;;;9.00;99.90;;;;;;5092913;28;20207;-72
2023/12/09 07:28:48;;;;;;;15.57;4.93;;;9.00;99.90;;;;;;5092525;28;20219;-72
2023/12/09 07:31:17;;;;;;;15.97;5.03;;;9.00;99.90;;;;;;5092937;28;20183;-71
2023/12/09 07:33:43;;;;;;;16.20;4.30;;;9.00;99.90;;;;;;5093281;28;20254;-71
2023/12/09 07:36:09;;;;;;;13.23;4.60;;;9.00;99.90;;;;;;5091673;28;20719;-71
2023/12/09 07:38:34;;;;;;;13.03;4.13;;;9.00;99.90;;;;;;5091611;28;20301;-71
2023/12/09 07:41:01;;;;;;;12.93;5.43;;;9.00;99.90;;;;;;5092962;28;20316;-71
2023/12/09 07:43:27;;;;;;;14.83;4.07;;;9.00;99.90;;;;;;5092882;28;20167;-71
2023/12/09 07:45:52;;;;;;;18.27;4.43;;;9.00;99.90;;;;;;5093121;28;20223;-71
2023/12/09 07:48:18;;;;;;;13.57;4.37;;;9.00;99.90;;;;;;5092741;28;20620;-71
2023/12/09 07:50:44;;;;;;;15.77;4.07;;;9.10;99.90;;;;;;5092995;28;20176;-71
2023/12/09 07:53:09;;;;;;;17.10;4.90;;;9.00;99.90;;;;;;5092016;28;20251;-72
2023/12/09 07:55:35;;;;;;;22.77;5.13;;;9.10;99.90;;;;;;5092388;28;20171;-71
2023/12/09 07:58:00;;;;;;;12.33;4.03;;;9.10;99.90;;;;;;5091386;28;20225;-71
2023/12/09 08:00:27;;;;;;;17.77;4.60;;;9.10;99.90;;;;;;5092396;28;20203;-71
2023/12/09 08:02:54;;;;;;;16.17;4.73;;;9.10;99.90;;;;;;5092969;28;20213;-71
2023/12/09 08:05:23;;;;;;;17.60;4.63;;;9.10;99.90;;;;;;5092280;28;20176;-71
2023/12/09 08:07:49;;;;;;;16.47;4.37;;;9.20;99.90;;;;;;5092444;28;20175;-72
2023/12/09 08:10:14;;;;;;;18.43;4.20;;;9.20;99.90;;;;;;5092697;28;20233;-71
2023/12/09 08:12:40;;;;;;;16.63;4.73;;;9.20;99.90;;;;;;5092446;28;20248;-71
2023/12/09 08:15:06;;;;;;;14.43;4.60;;;9.20;99.90;;;;;;5091258;28;20198;-71
2023/12/09 08:17:32;;;;;;;16.23;4.20;;;9.20;99.90;;;;;;5092552;28;20553;-71
2023/12/09 08:19:58;;;;;;;13.60;4.40;;;9.20;99.90;;;;;;5092508;28;20281;-71
2023/12/09 08:22:23;;;;;;;13.50;4.00;;;9.30;99.90;;;;;;5091727;28;20217;-71
2023/12/09 08:24:49;;;;;;;10.57;3.67;;;9.30;99.90;;;;;;5092516;28;20520;-70
2023/12/09 08:27:14;;;;;;;12.60;4.20;;;9.30;99.90;;;;;;5092297;28;20234;-70
2023/12/09 08:29:40;;;;;;;14.17;3.90;;;9.30;99.90;;;;;;5091332;28;20579;-72
2023/12/09 08:32:06;;;;;;;15.30;4.07;;;9.30;99.90;;;;;;5091631;28;20175;-70
2023/12/09 08:34:31;;;;;;;18.57;4.40;;;9.30;99.90;;;;;;5090681;28;20643;-70
2023/12/09 08:36:57;;;;;;;15.47;4.23;;;9.30;99.90;;;;;;5090205;28;20650;-71
2023/12/09 08:39:23;;;;;;;16.33;4.30;;;9.40;99.90;;;;;;5092512;28;20184;-71
2023/12/09 08:41:49;;;;;;;11.00;3.60;;;9.40;99.90;;;;;;5092146;28;20626;-70
2023/12/09 08:44:14;;;;;;;13.40;4.20;;;9.40;99.90;;;;;;5092148;28;20165;-70
2023/12/09 08:46:40;;;;;;;14.50;4.53;;;9.50;99.90;;;;;;5092034;28;20204;-70
2023/12/09 08:49:06;;;;;;;11.50;4.13;;;9.50;99.90;;;;;;5091166;28;20265;-72
2023/12/09 08:51:43;;;;;;;15.50;4.27;;;9.50;99.90;;;;;;5095225;28;20179;-71
2023/12/09 08:54:09;;;;;;;16.07;4.33;;;9.60;99.90;;;;;;5096555;28;20242;-71
2023/12/09 08:56:35;;;;;;;15.33;4.23;;;9.50;99.90;;;;;;5095582;28;20255;-72
2023/12/09 08:59:00;;;;;;;17.97;4.60;;;9.60;99.90;;;;;;5095192;28;20650;-71
2023/12/09 09:01:26;;;;;;;10.10;3.63;;;9.60;99.90;;;;;;5095850;28;20175;-72
2023/12/09 09:03:51;;;;;;;13.53;3.40;;;9.60;99.90;;;;;;5096314;28;20172;-71
2023/12/09 09:06:17;;;;;;;7.70;3.03;;;9.60;99.90;;;;;;5094758;28;20575;-70
2023/12/09 09:08:43;;;;;;;15.90;3.67;;;9.60;99.90;;;;;;5095380;28;20164;-72
2023/12/09 09:11:10;;;;;;;10.87;3.33;;;9.60;99.90;;;;;;5093607;28;20255;-72
2023/12/09 09:13:36;;;;;;;8.50;3.37;;;9.70;99.90;;;;;;5095632;28;20206;-71
2023/12/09 09:16:02;;;;;;;9.23;3.03;;;9.70;99.90;;;;;;5094044;28;20609;-72
2023/12/09 09:18:27;;;;;;;8.67;2.87;;;9.70;99.90;;;;;;5094530;28;20597;-70
2023/12/09 09:20:53;;;;;;;8.77;2.87;;;9.60;99.90;;;;;;5094443;28;20175;-71
2023/12/09 09:23:19;;;;;;;7.57;3.20;;;9.60;99.90;;;;;;5095462;28;20196;-71
2023/12/09 09:25:45;;;;;;;8.77;2.90;;;9.50;99.90;;;;;;5095024;28;20643;-71
2023/12/09 09:28:12;;;;;;;5.57;2.60;;;9.50;99.90;;;;;;5094755;28;20730;-72
2023/12/09 09:30:37;;;;;;;9.43;3.20;;;9.40;99.90;;;;;;5093578;28;20172;-70
2023/12/09 09:33:03;;;;;;;8.17;3.40;;;9.40;99.90;;;;;;5094766;28;20267;-72
2023/12/09 09:35:28;;;;;;;4.53;2.57;;;9.40;99.90;;;;;;5094552;28;20221;-73
2023/12/09 09:37:54;;;;;;;7.57;2.80;;;9.50;99.90;;;;;;5095337;28;20195;-72
2023/12/09 09:40:20;;;;;;;5.17;2.37;;;9.50;99.90;;;;;;5095003;28;20191;-72
2023/12/09 09:42:55;;;;;;;7.23;2.53;;;9.50;99.90;;;;;;5094645;28;20238;-71
2023/12/09 09:45:21;;;;;;;8.17;2.60;;;9.50;99.90;;;;;;5094477;28;20175;-72
2023/12/09 09:47:48;;;;;;;6.23;2.43;;;9.40;99.90;;;;;;5094473;28;20172;-72
2023/12/09 09:50:18;;;;;;;5.73;1.93;;;9.40;99.90;;;;;;5094121;28;20176;-72
2023/12/09 09:52:45;;;;;;;8.93;2.67;;;9.40;99.90;;;;;;5094761;28;20217;-71
2023/12/09 09:55:13;;;;;;;8.20;2.70;;;9.40;99.90;;;;;;5093216;28;20168;-72
2023/12/09 09:57:40;;;;;;;5.00;2.20;;;9.30;99.90;;;;;;5094445;28;20176;-73
2023/12/09 10:00:13;;;;;;;6.13;1.80;;;9.30;99.90;;;;;;5094277;28;20171;-72
2023/12/09 10:02:45;;;;;;;3.53;1.60;;;9.20;99.90;;;;;;5094212;28;20250;-72
2023/12/09 10:05:12;;;;;;;4.37;2.47;;;9.20;99.90;;;;;;5093958;28;20183;-71
2023/12/09 10:07:39;;;;;;;4.20;2.20;;;9.20;99.90;;;;;;5093892;28;20576;-71
2023/12/09 10:10:06;;;;;;;3.27;2.17;;;9.10;99.90;;;;;;5094250;28;20183;-71
2023/12/09 10:12:32;;;;;;;3.07;2.03;;;9.10;99.90;;;;;;5092623;28;20226;-72
2023/12/09 10:15:00;;;;;;;2.90;2.00;;;9.10;99.90;;;;;;5094468;28;20183;-72
2023/12/09 10:17:27;;;;;;;4.97;1.90;;;9.10;99.90;;;;;;5094274;28;20171;-71
2023/12/09 10:19:54;;;;;;;5.23;1.60;;;9.10;99.90;;;;;;5093373;28;20215;-71
2023/12/09 10:22:20;;;;;;;2.33;1.60;;;9.10;99.90;;;;;;5093722;28;20671;-72
2023/12/09 10:24:50;;;;;;;2.97;2.10;;;9.10;99.90;;;;;;5093929;28;20282;-72
2023/12/09 10:27:18;;;;;;;2.67;1.47;;;9.10;99.90;;;;;;5093533;28;20298;-71
2023/12/09 10:29:44;;;;;;;3.57;1.63;;;9.10;99.90;;;;;;5094369;28;20262;-72
2023/12/09 10:32:11;;;;;;;4.03;1.63;;;9.10;99.90;;;;;;5093483;28;20271;-72
2023/12/09 10:34:36;;;;;;;5.10;1.40;;;9.10;99.90;;;;;;5093569;28;20272;-72
2023/12/09 10:37:02;;;;;;;3.27;1.40;;;9.10;99.90;;;;;;5094252;28;20249;-72
2023/12/09 10:39:29;;;;;;;4.43;1.60;;;9.10;99.90;;;;;;5093669;28;20163;-72
2023/12/09 10:41:57;;;;;;;2.73;1.70;;;9.10;99.90;;;;;;5093392;28;20172;-72
2023/12/09 10:44:23;;;;;;;2.80;1.10;;;9.10;99.90;;;;;;5093800;28;20485;-72
2023/12/09 10:46:48;;;;;;;2.80;1.40;;;9.10;99.90;;;;;;5093036;28;20218;-72
2023/12/09 10:49:14;;;;;;;3.77;1.40;;;9.10;99.90;;;;;;5093497;28;20168;-72
2023/12/09 10:51:40;;;;;;;3.97;0.97;;;9.20;99.90;;;;;;5093637;28;20617;-72
2023/12/09 10:54:05;;;;;;;1.67;1.03;;;9.10;99.90;;;;;;5093241;28;20652;-71
2023/12/09 10:56:31;;;;;;;3.33;1.50;;;9.10;99.90;;;;;;5093267;28;20193;-73
2023/12/09 10:58:57;;;;;;;2.43;1.50;;;9.10;99.90;;;;;;5093270;28;20160;-72
2023/12/09 11:01:23;;;;;;;0.90;0.90;;;9.10;99.90;;;;;;5092932;28;20207;-72
2023/12/09 11:03:49;;;;;;;1.90;0.97;;;9.10;99.90;;;;;;5093886;28;20245;-72
2023/12/09 11:06:17;;;;;;;3.40;1.30;;;9.10;99.90;;;;;;5092772;28;20666;-72
2023/12/09 11:08:43;;;;;;;2.40;0.90;;;9.10;99.90;;;;;;5092497;28;20172;-73
2023/12/09 11:11:09;;;;;;;2.73;0.93;;;9.10;99.90;;;;;;5092398;28;20267;-73
2023/12/09 11:13:36;;;;;;;3.57;1.20;;;9.10;99.90;;;;;;5092339;28;20168;-72
2023/12/09 11:16:08;;;;;;;3.67;0.93;;;9.10;99.90;;;;;;5092558;28;20171;-73
2023/12/09 11:18:34;;;;;;;4.77;1.20;;;9.10;99.90;;;;;;5092988;28;20626;-73
2023/12/09 11:21:02;;;;;;;2.80;1.23;;;9.20;99.90;;;;;;5092909;28;20258;-73
2023/12/09 11:23:27;;;;;;;20.70;14.13;;;9.20;99.90;;;;;;5092670;28;20671;-73
2023/12/09 11:25:53;;;;;;;3.50;1.80;;;9.20;99.90;;;;;;5093322;28;20211;-73
2023/12/09 11:28:20;;;;;;;2.97;1.73;;;9.20;99.90;;;;;;5092547;28;20223;-73
2023/12/09 11:30:46;;;;;;;20.80;13.40;;;9.20;99.90;;;;;;5091956;28;20183;-72
2023/12/09 11:33:12;;;;;;;3.20;1.00;;;9.10;99.90;;;;;;5092440;28;20168;-72
2023/12/09 11:35:38;;;;;;;2.20;0.90;;;9.10;99.90;;;;;;5089880;28;20182;-72
2023/12/09 11:38:07;;;;;;;6.23;3.00;;;9.10;99.90;;;;;;5092966;28;20171;-71
2023/12/09 11:40:33;;;;;;;7.00;4.50;;;9.10;99.90;;;;;;5092082;28;20179;-71
2023/12/09 11:43:03;;;;;;;3.47;2.80;;;9.00;99.90;;;;;;5091910;28;20236;-72
2023/12/09 11:45:28;;;;;;;2.23;1.47;;;9.00;99.90;;;;;;5091486;28;20644;-72
2023/12/09 11:47:54;;;;;;;3.43;0.83;;;9.00;99.90;;;;;;5092622;28;20258;-71
2023/12/09 11:50:20;;;;;;;2.40;1.20;;;9.00;99.90;;;;;;5091796;28;20650;-72
2023/12/09 11:52:47;;;;;;;2.40;1.30;;;9.00;99.90;;;;;;5092637;28;20164;-72
2023/12/09 11:55:15;;;;;;;1.37;1.20;;;9.10;99.90;;;;;;5091035;28;20172;-72
2023/12/09 11:57:41;;;;;;;2.03;1.40;;;9.10;99.90;;;;;;5092104;28;20202;-73
2023/12/09 12:00:11;;;;;;;1.73;1.63;;;9.10;99.90;;;;;;5092022;28;20168;-73
2023/12/09 12:02:40;;;;;;;2.40;1.37;;;9.10;99.90;;;;;;5092380;28;20160;-73
2023/12/09 12:05:08;;;;;;;1.83;1.30;;;9.10;99.90;;;;;;5091855;28;20175;-72
2023/12/09 12:07:37;;;;;;;2.20;1.17;;;9.10;99.90;;;;;;5092807;28;20211;-72
2023/12/09 12:10:07;;;;;;;5.03;4.10;;;9.10;99.90;;;;;;5092221;28;20682;-73
2023/12/09 12:12:33;;;;;;;2.40;2.20;;;9.10;99.90;;;;;;5092229;28;20164;-71
2023/12/09 12:15:00;;;;;;;1.23;0.97;;;9.10;99.90;;;;;;5091247;28;20222;-72
2023/12/09 12:17:25;;;;;;;5.83;2.00;;;9.10;99.90;;;;;;5092746;28;20259;-72
2023/12/09 12:19:51;;;;;;;5.93;1.93;;;9.10;99.90;;;;;;5092015;28;20739;-72
2023/12/09 12:22:18;;;;;;;1.60;1.43;;;9.00;99.90;;;;;;5092370;28;20172;-73
2023/12/09 12:24:45;;;;;;;1.47;1.00;;;9.00;99.90;;;;;;5094379;28;20203;-72
2023/12/09 12:27:10;;;;;;;1.90;1.40;;;8.90;99.90;;;;;;5095570;28;20749;-70
2023/12/09 12:29:40;;;;;;;0.97;0.80;;;8.90;99.90;;;;;;5095425;28;20219;-71
2023/12/09 12:32:07;;;;;;;5.40;4.93;;;8.80;99.90;;;;;;5096642;28;20175;-71
2023/12/09 12:34:32;;;;;;;1.83;1.70;;;8.80;99.90;;;;;;5095770;28;20202;-71
2023/12/09 12:36:58;;;;;;;1.40;1.20;;;8.80;99.90;;;;;;5096066;28;20290;-72
2023/12/09 12:39:24;;;;;;;2.70;1.70;;;8.80;99.90;;;;;;5095812;28;20619;-72